createdAt,value
2018-08-19T00:00:31.169Z,15.80
2018-08-19T00:03:02.500Z,15.90
2018-08-19T00:05:32.656Z,15.80
2018-08-19T00:08:02.788Z,15.80
2018-08-19T00:10:47.832Z,15.80
2018-08-19T00:16:18.896Z,15.70
2018-08-19T00:18:49.048Z,15.90
2018-08-19T00:21:19.204Z,15.80
2018-08-19T00:23:51.102Z,15.80
2018-08-19T00:26:21.272Z,15.70
2018-08-19T00:28:51.392Z,15.70
2018-08-19T00:31:21.609Z,15.60
2018-08-19T00:33:51.760Z,15.60
2018-08-19T00:36:31.400Z,15.50
2018-08-19T00:39:01.510Z,15.50
2018-08-19T00:41:31.665Z,15.40
2018-08-19T00:44:01.776Z,15.40
2018-08-19T00:46:32.928Z,15.30
2018-08-19T00:49:03.054Z,15.40
2018-08-19T00:51:33.233Z,15.40
2018-08-19T00:54:03.379Z,15.40
2018-08-19T00:56:33.540Z,15.50
2018-08-19T00:59:04.153Z,15.60
2018-08-19T01:01:36.188Z,15.60
2018-08-19T01:04:10.296Z,15.60
2018-08-19T01:06:45.598Z,15.60
2018-08-19T01:09:15.769Z,15.50
2018-08-19T01:11:45.973Z,15.50
2018-08-19T01:14:16.156Z,15.40
2018-08-19T01:16:46.270Z,15.30
2018-08-19T01:19:17.601Z,15.30
2018-08-19T01:21:53.223Z,15.20
2018-08-19T01:24:23.556Z,15.20
2018-08-19T01:26:53.696Z,15.10
2018-08-19T01:29:35.728Z,15.10
2018-08-19T01:32:12.288Z,15.10
2018-08-19T01:34:45.901Z,15.00
2018-08-19T01:37:16.269Z,15.10
2018-08-19T01:39:46.377Z,15.10
2018-08-19T01:42:16.492Z,15.20
2018-08-19T01:44:46.584Z,15.10
2018-08-19T01:47:16.692Z,15.10
2018-08-19T01:49:46.773Z,15.10
2018-08-19T01:52:16.878Z,15.00
2018-08-19T01:54:46.965Z,14.90
2018-08-19T01:57:17.085Z,14.90
2018-08-19T01:59:47.200Z,14.90
2018-08-19T02:02:17.278Z,14.90
2018-08-19T02:04:52.524Z,14.90
2018-08-19T02:07:22.672Z,14.90
2018-08-19T02:10:03.187Z,14.90
2018-08-19T02:12:39.101Z,14.90
2018-08-19T02:15:10.400Z,14.80
2018-08-19T02:17:46.137Z,14.70
2018-08-19T02:20:16.229Z,14.70
2018-08-19T02:22:53.357Z,14.70
2018-08-19T02:25:23.445Z,14.50
2018-08-19T02:27:53.601Z,14.60
2018-08-19T02:30:23.704Z,14.60
2018-08-19T02:32:55.697Z,14.60
2018-08-19T02:35:25.899Z,14.50
2018-08-19T02:37:55.992Z,14.50
2018-08-19T02:40:32.183Z,14.60
2018-08-19T02:43:02.308Z,14.60
2018-08-19T02:45:32.433Z,14.60
2018-08-19T02:48:02.561Z,14.60
2018-08-19T02:50:32.658Z,14.60
2018-08-19T02:53:02.824Z,14.70
2018-08-19T02:55:32.912Z,14.60
2018-08-19T02:58:08.226Z,14.60
2018-08-19T03:00:38.386Z,14.50
2018-08-19T03:03:08.932Z,14.40
2018-08-19T03:05:39.676Z,14.30
2018-08-19T03:08:09.764Z,14.30
2018-08-19T03:10:39.872Z,14.40
2018-08-19T03:13:09.959Z,14.20
2018-08-19T03:15:40.045Z,14.30
2018-08-19T03:18:10.146Z,14.20
2018-08-19T03:20:40.260Z,14.30
2018-08-19T03:23:11.972Z,14.30
2018-08-19T03:25:42.076Z,14.30
2018-08-19T03:28:12.172Z,14.40
2018-08-19T03:30:53.469Z,14.30
2018-08-19T03:33:23.604Z,14.20
2018-08-19T03:35:53.674Z,14.20
2018-08-19T03:38:26.676Z,14.20
2018-08-19T03:40:58.156Z,14.20
2018-08-19T03:46:49.065Z,14.10
2018-08-19T03:49:38.002Z,14.00
2018-08-19T03:54:02.158Z,14.00
2018-08-19T03:56:32.659Z,14.00
2018-08-19T03:59:06.393Z,14.00
2018-08-19T04:02:05.483Z,13.90
2018-08-19T04:07:48.732Z,14.00
2018-08-19T04:10:38.164Z,14.20
2018-08-19T04:13:32.441Z,14.20
2018-08-19T04:16:03.718Z,14.10
2018-08-19T04:18:36.284Z,14.00
2018-08-19T04:21:09.556Z,14.00
2018-08-19T04:23:44.082Z,14.00
2018-08-19T04:26:14.164Z,14.20
2018-08-19T04:28:45.268Z,14.60
2018-08-19T05:02:19.876Z,19.90
2018-08-19T05:04:49.976Z,20.20
2018-08-19T05:07:20.136Z,20.20
2018-08-19T05:09:50.245Z,20.60
2018-08-19T05:12:20.452Z,20.90
2018-08-19T05:14:50.547Z,20.90
2018-08-19T05:17:20.692Z,21.20
2018-08-19T05:19:54.285Z,21.60
2018-08-19T05:22:24.468Z,22.20
2018-08-19T05:24:54.585Z,22.10
2018-08-19T05:27:24.697Z,22.50
2018-08-19T05:29:54.805Z,23.10
2018-08-19T05:32:25.037Z,23.20
2018-08-19T05:34:55.149Z,23.00
2018-08-19T05:37:25.245Z,23.50
2018-08-19T05:39:58.832Z,23.80
2018-08-19T05:42:29.048Z,23.90
2018-08-19T05:44:59.180Z,24.10
2018-08-19T05:47:29.308Z,24.40
2018-08-19T05:49:59.496Z,24.50
2018-08-19T05:52:30.849Z,24.90
2018-08-19T05:55:01.780Z,25.20
2018-08-19T05:57:34.888Z,25.40
2018-08-19T06:00:10.340Z,25.40
2018-08-19T06:02:44.553Z,25.50
2018-08-19T06:05:14.670Z,25.60
2018-08-19T06:07:44.882Z,25.90
2018-08-19T06:10:15.089Z,26.10
2018-08-19T06:12:45.193Z,26.10
2018-08-19T06:15:15.295Z,26.50
2018-08-19T06:17:45.389Z,26.60
2018-08-19T06:20:15.569Z,26.70
2018-08-19T06:22:45.893Z,26.60
2018-08-19T06:25:16.016Z,26.80
2018-08-19T06:27:47.258Z,26.40
2018-08-19T06:30:18.408Z,25.80
2018-08-19T06:32:48.576Z,26.30
2018-08-19T06:35:18.721Z,26.70
2018-08-19T06:37:48.836Z,27.00
2018-08-19T06:40:20.345Z,27.70
2018-08-19T06:42:54.812Z,27.40
2018-08-19T06:45:24.942Z,27.90
2018-08-19T06:47:55.096Z,28.10
2018-08-19T06:50:27.006Z,28.00
2018-08-19T06:52:57.683Z,28.30
2018-08-19T06:55:27.836Z,28.90
2018-08-19T06:57:59.685Z,29.30
2018-08-19T07:00:31.551Z,28.90
2018-08-19T07:03:03.656Z,28.30
2018-08-19T07:05:34.580Z,28.50
2018-08-19T07:08:04.735Z,29.20
2018-08-19T07:10:38.990Z,29.30
2018-08-19T07:13:12.267Z,29.10
2018-08-19T07:15:43.608Z,29.30
2018-08-19T07:18:15.382Z,29.60
2018-08-19T07:20:45.855Z,29.70
2018-08-19T07:23:16.028Z,29.70
2018-08-19T07:25:46.553Z,29.70
2018-08-19T07:28:17.896Z,30.10
2018-08-19T07:30:48.172Z,30.20
2018-08-19T07:33:18.665Z,30.30
2018-08-19T07:35:49.221Z,30.40
2018-08-19T07:38:19.444Z,29.80
2018-08-19T07:40:49.631Z,29.70
2018-08-19T07:43:19.752Z,29.50
2018-08-19T07:45:50.594Z,29.40
2018-08-19T07:48:20.745Z,29.60
2018-08-19T07:50:50.898Z,29.80
2018-08-19T07:53:21.005Z,30.00
2018-08-19T07:55:51.152Z,29.80
2018-08-19T07:58:42.531Z,30.50
2018-08-19T08:01:12.636Z,30.40
2018-08-19T08:03:42.751Z,30.30
2018-08-19T08:06:12.879Z,30.50
2018-08-19T08:08:43.057Z,30.80
2018-08-19T08:11:13.266Z,30.80
2018-08-19T08:13:43.383Z,31.00
2018-08-19T08:16:13.464Z,31.10
2018-08-19T08:18:43.581Z,31.30
2018-08-19T08:21:14.577Z,31.20
2018-08-19T08:23:44.681Z,31.20
2018-08-19T08:26:14.849Z,30.80
2018-08-19T08:28:52.793Z,31.20
2018-08-19T08:31:22.958Z,31.20
2018-08-19T08:33:53.184Z,31.60
2018-08-19T08:36:23.304Z,31.10
2018-08-19T08:38:53.431Z,31.50
2018-08-19T08:41:23.608Z,31.60
2018-08-19T08:43:53.750Z,31.40
2018-08-19T08:46:23.844Z,31.00
2018-08-19T08:48:53.964Z,31.20
2018-08-19T08:51:24.140Z,30.90
2018-08-19T08:53:54.489Z,31.20
2018-08-19T08:56:25.297Z,30.80
2018-08-19T08:58:55.435Z,30.90
2018-08-19T09:01:25.634Z,30.90
2018-08-19T09:03:55.822Z,31.10
2018-08-19T09:06:29.960Z,31.40
2018-08-19T09:09:00.125Z,31.40
2018-08-19T09:11:30.252Z,31.20
2018-08-19T09:14:00.505Z,31.10
2018-08-19T09:16:30.541Z,30.80
2018-08-19T09:19:00.652Z,31.20
2018-08-19T09:21:30.852Z,31.00
2018-08-19T09:24:01.008Z,30.90
2018-08-19T09:26:31.129Z,30.90
2018-08-19T09:29:01.267Z,30.60
2018-08-19T09:31:31.355Z,30.80
2018-08-19T09:34:02.255Z,30.90
2018-08-19T09:36:32.446Z,30.90
2018-08-19T09:39:02.662Z,30.60
2018-08-19T09:41:39.089Z,30.90
2018-08-19T09:44:09.230Z,30.80
2018-08-19T09:46:39.329Z,30.60
2018-08-19T09:49:09.468Z,30.40
2018-08-19T09:51:39.669Z,30.10
2018-08-19T09:54:09.885Z,29.90
2018-08-19T09:56:39.952Z,30.10
2018-08-19T09:59:10.156Z,30.00
2018-08-19T10:01:46.286Z,30.00
2018-08-19T10:04:22.260Z,30.00
2018-08-19T10:07:02.154Z,29.80
2018-08-19T10:09:32.284Z,29.70
2018-08-19T10:12:02.524Z,29.80
2018-08-19T10:14:32.621Z,29.90
2018-08-19T10:17:02.804Z,29.90
2018-08-19T10:19:32.930Z,30.00
2018-08-19T10:22:03.120Z,30.00
2018-08-19T10:24:36.890Z,29.80
2018-08-19T10:27:09.242Z,29.80
2018-08-19T10:29:39.336Z,29.50
2018-08-19T10:32:09.476Z,29.30
2018-08-19T10:34:39.649Z,29.20
2018-08-19T10:37:09.820Z,29.20
2018-08-19T10:39:40.196Z,29.30
2018-08-19T10:42:23.085Z,29.40
2018-08-19T10:44:53.882Z,29.40
2018-08-19T10:47:24.075Z,29.40
2018-08-19T10:49:59.812Z,29.30
2018-08-19T10:52:31.816Z,29.30
2018-08-19T10:55:02.388Z,29.10
2018-08-19T10:57:32.731Z,29.10
2018-08-19T11:00:03.480Z,29.20
2018-08-19T11:02:33.852Z,29.20
2018-08-19T11:05:04.065Z,29.10
2018-08-19T11:07:34.325Z,29.10
2018-08-19T11:10:22.084Z,29.00
2018-08-19T11:12:58.654Z,28.80
2018-08-19T11:15:51.056Z,28.80
2018-08-19T11:18:34.305Z,29.00
2018-08-19T11:21:13.577Z,29.10
2018-08-19T11:23:46.924Z,29.20
2018-08-19T11:26:17.069Z,29.10
2018-08-19T11:29:03.958Z,29.10
2018-08-19T11:31:36.325Z,29.00
2018-08-19T11:34:08.882Z,29.10
2018-08-19T11:36:43.345Z,29.00
2018-08-19T11:39:17.180Z,29.00
2018-08-19T11:41:47.280Z,29.00
2018-08-19T11:44:18.231Z,29.00
2018-08-19T11:46:48.437Z,28.80
2018-08-19T11:49:19.708Z,28.70
2018-08-19T11:51:55.638Z,28.70
2018-08-19T11:54:26.481Z,28.90
2018-08-19T11:57:04.055Z,29.00
2018-08-19T11:59:38.150Z,28.90
2018-08-19T12:02:11.698Z,28.80
2018-08-19T12:04:41.800Z,28.80
2018-08-19T12:07:11.892Z,28.80
2018-08-19T12:09:52.894Z,28.80
2018-08-19T12:12:44.902Z,28.90
2018-08-19T12:15:15.088Z,29.00
2018-08-19T12:17:45.445Z,29.00
2018-08-19T12:20:23.052Z,29.10
2018-08-19T12:22:53.196Z,29.20
2018-08-19T12:25:23.324Z,29.20
2018-08-19T12:27:53.594Z,29.30
2018-08-19T12:30:23.681Z,29.30
2018-08-19T12:33:09.690Z,29.20
2018-08-19T12:35:39.854Z,29.10
2018-08-19T12:38:10.032Z,29.20
2018-08-19T12:40:44.431Z,29.20
2018-08-19T12:43:14.528Z,29.10
2018-08-19T12:45:45.481Z,29.10
2018-08-19T12:48:15.621Z,29.00
2018-08-19T12:50:52.404Z,29.10
2018-08-19T12:53:23.012Z,29.10
2018-08-19T12:55:53.471Z,29.10
2018-08-19T12:58:23.927Z,29.00
2018-08-19T13:00:54.243Z,29.00
2018-08-19T13:03:27.924Z,29.10
2018-08-19T13:06:05.633Z,29.00
2018-08-19T13:08:35.815Z,29.00
2018-08-19T13:11:08.034Z,29.00
2018-08-19T13:13:38.464Z,29.10
2018-08-19T13:16:08.739Z,29.10
2018-08-19T13:18:41.997Z,29.00
2018-08-19T13:21:18.312Z,29.10
2018-08-19T13:23:48.626Z,29.00
2018-08-19T13:26:18.912Z,28.80
2018-08-19T13:28:53.632Z,28.80
2018-08-19T13:31:31.453Z,28.80
2018-08-19T13:34:01.772Z,28.90
2018-08-19T13:36:32.453Z,28.80
2018-08-19T13:39:02.616Z,28.90
2018-08-19T13:41:32.741Z,28.80
2018-08-19T13:44:02.940Z,28.90
2018-08-19T13:46:33.101Z,29.10
2018-08-19T13:49:03.216Z,29.00
2018-08-19T13:51:33.360Z,29.10
2018-08-19T13:54:03.575Z,29.10
2018-08-19T13:56:33.898Z,29.20
2018-08-19T13:59:04.108Z,29.10
2018-08-19T14:01:34.229Z,29.40
2018-08-19T14:04:04.404Z,29.40
2018-08-19T14:06:34.557Z,29.30
2018-08-19T14:09:05.785Z,29.40
2018-08-19T14:11:35.921Z,29.30
2018-08-19T14:14:06.160Z,29.40
2018-08-19T14:16:36.389Z,29.40
2018-08-19T14:19:06.764Z,29.30
2018-08-19T14:21:36.915Z,29.30
2018-08-19T14:24:07.045Z,29.10
2018-08-19T14:26:37.181Z,29.20
2018-08-19T14:29:07.312Z,29.30
2018-08-19T14:31:37.420Z,29.30
2018-08-19T14:34:07.613Z,29.50
2018-08-19T14:36:37.732Z,29.60
2018-08-19T14:39:08.237Z,29.80
2018-08-19T14:41:38.396Z,29.90
2018-08-19T14:44:09.045Z,29.80
2018-08-19T14:46:39.569Z,29.60
2018-08-19T14:49:10.081Z,29.40
2018-08-19T14:51:58.888Z,29.10
2018-08-19T14:54:29.005Z,28.90
2018-08-19T14:56:59.517Z,28.70
2018-08-19T14:59:29.632Z,28.50
2018-08-19T15:01:59.887Z,28.40
2018-08-19T15:04:30.270Z,28.10
2018-08-19T15:07:00.510Z,28.10
2018-08-19T15:09:32.184Z,28.00
2018-08-19T15:12:12.743Z,28.00
2018-08-19T15:14:43.452Z,27.90
2018-08-19T15:17:13.620Z,27.80
2018-08-19T15:19:47.648Z,27.80
2018-08-19T15:22:17.850Z,27.70
2018-08-19T15:24:48.455Z,27.60
2018-08-19T15:27:18.637Z,27.60
2018-08-19T15:29:53.500Z,27.40
2018-08-19T15:32:25.092Z,27.50
2018-08-19T15:34:55.396Z,27.50
2018-08-19T15:37:25.518Z,27.60
2018-08-19T15:39:55.655Z,27.60
2018-08-19T15:42:25.912Z,27.70
2018-08-19T15:44:56.216Z,27.70
2018-08-19T15:47:26.316Z,27.80
2018-08-19T15:50:17.333Z,27.80
2018-08-19T15:52:49.439Z,27.90
2018-08-19T15:55:19.515Z,27.90
2018-08-19T15:57:49.632Z,27.80
2018-08-19T16:00:20.059Z,27.70
2018-08-19T16:02:50.304Z,27.80
2018-08-19T16:05:20.736Z,27.70
2018-08-19T16:07:50.941Z,27.70
2018-08-19T16:10:21.055Z,27.60
2018-08-19T16:12:52.385Z,27.40
2018-08-19T16:15:28.016Z,27.40
2018-08-19T16:17:58.840Z,27.30
2018-08-19T16:20:28.920Z,27.10
2018-08-19T16:22:59.340Z,27.00
2018-08-19T16:25:29.784Z,27.00
2018-08-19T16:27:59.919Z,26.90
2018-08-19T16:30:30.028Z,26.80
2018-08-19T16:33:00.185Z,26.70
2018-08-19T16:35:30.666Z,26.70
2018-08-19T16:38:01.068Z,26.60
2018-08-19T16:40:31.220Z,26.50
2018-08-19T16:43:01.508Z,26.40
2018-08-19T16:45:32.020Z,26.30
2018-08-19T16:48:02.385Z,26.20
2018-08-19T16:50:32.678Z,26.10
2018-08-19T16:53:02.696Z,26.00
2018-08-19T16:55:32.833Z,25.90
2018-08-19T16:58:03.241Z,25.70
2018-08-19T17:00:33.471Z,25.50
2018-08-19T17:03:23.500Z,25.30
2018-08-19T17:05:54.763Z,25.20
2018-08-19T17:08:25.228Z,25.00
2018-08-19T17:10:55.403Z,24.90
2018-08-19T17:13:25.561Z,24.80
2018-08-19T17:15:55.665Z,24.70
2018-08-19T17:18:26.045Z,24.60
2018-08-19T17:20:56.128Z,24.60
2018-08-19T17:23:26.467Z,24.50
2018-08-19T17:25:57.361Z,24.40
2018-08-19T17:28:27.610Z,24.20
2018-08-19T17:30:57.751Z,24.10
2018-08-19T17:33:32.113Z,24.00
2018-08-19T17:36:02.432Z,23.90
2018-08-19T17:38:35.048Z,23.80
2018-08-19T17:41:05.421Z,23.60
2018-08-19T17:43:39.687Z,23.50
2018-08-19T17:46:13.135Z,23.40
2018-08-19T17:48:44.403Z,23.20
2018-08-19T17:51:31.725Z,23.10
2018-08-19T17:54:02.045Z,22.90
2018-08-19T17:56:32.157Z,22.90
2018-08-19T17:59:05.001Z,22.70
2018-08-19T18:01:39.221Z,22.60
2018-08-19T18:04:09.880Z,22.50
2018-08-19T18:06:40.199Z,22.30
2018-08-19T18:09:13.435Z,22.10
2018-08-19T18:11:49.733Z,22.00
2018-08-19T18:14:19.824Z,21.90
2018-08-19T18:16:50.021Z,21.80
2018-08-19T18:19:20.568Z,21.70
2018-08-19T18:21:50.704Z,21.50
2018-08-19T18:43:03.400Z,20.60
2018-08-19T18:45:39.168Z,20.50
2018-08-19T18:48:15.383Z,20.30
2018-08-19T18:50:55.465Z,20.30
2018-08-19T18:53:31.233Z,20.20
2018-08-19T18:56:07.393Z,20.10
2018-08-19T18:58:44.341Z,20.00
2018-08-19T19:01:20.210Z,20.00
2018-08-19T19:03:55.997Z,19.90
2018-08-19T19:06:31.691Z,19.80
2018-08-19T19:09:09.294Z,19.70
2018-08-19T19:11:44.849Z,19.60
2018-08-19T19:14:21.719Z,19.60
2018-08-19T19:16:57.368Z,19.50
2018-08-19T19:19:38.329Z,19.40
2018-08-19T19:22:14.371Z,19.30
2018-08-19T19:24:53.428Z,19.30
2018-08-19T19:27:23.532Z,19.20
2018-08-19T19:29:58.787Z,19.10
2018-08-19T19:32:29.413Z,19.00
2018-08-19T19:35:07.653Z,19.00
2018-08-19T19:37:38.265Z,18.90
2018-08-19T19:40:09.233Z,18.90
2018-08-19T19:42:39.435Z,18.80
2018-08-19T19:45:11.614Z,18.80
2018-08-19T19:47:41.786Z,18.80
2018-08-19T19:50:11.923Z,18.70
2018-08-19T19:52:59.966Z,18.70
2018-08-19T19:55:30.134Z,18.70
2018-08-19T19:58:00.517Z,18.70
2018-08-19T20:00:50.428Z,18.60
2018-08-19T20:03:21.509Z,18.50
2018-08-19T20:05:51.662Z,18.40
2018-08-19T20:08:26.655Z,18.50
2018-08-19T20:10:56.764Z,18.30
2018-08-19T20:13:26.934Z,18.20
2018-08-19T20:15:57.072Z,18.20
2018-08-19T20:18:27.157Z,18.20
2018-08-19T20:20:57.312Z,18.20
2018-08-19T20:23:27.399Z,18.20
2018-08-19T20:25:57.535Z,18.10
2018-08-19T20:28:27.616Z,18.10
2018-08-19T20:30:57.797Z,18.10
2018-08-19T20:33:28.889Z,18.10
2018-08-19T20:35:59.124Z,18.00
2018-08-19T20:38:29.247Z,18.00
2018-08-19T20:40:59.404Z,17.90
2018-08-19T20:43:29.533Z,17.90
2018-08-19T20:45:59.644Z,17.90
2018-08-19T20:48:29.983Z,17.80
2018-08-19T20:51:00.137Z,17.80
2018-08-19T20:53:30.257Z,17.70
2018-08-19T20:56:00.576Z,17.70
2018-08-19T20:58:30.690Z,17.80
2018-08-19T21:01:00.932Z,17.70
2018-08-19T21:03:31.133Z,17.80
2018-08-19T21:06:01.228Z,17.80
2018-08-19T21:08:31.377Z,17.70
2018-08-19T21:11:01.468Z,17.60
2018-08-19T21:13:31.581Z,17.50
2018-08-19T21:16:01.664Z,17.50
2018-08-19T21:18:33.256Z,17.50
2018-08-19T21:21:03.371Z,17.40
2018-08-19T21:23:33.444Z,17.40
2018-08-19T21:26:03.548Z,17.30
2018-08-19T21:28:34.074Z,17.30
2018-08-19T21:31:04.194Z,17.40
2018-08-19T21:33:35.299Z,17.40
2018-08-19T21:36:05.418Z,17.30
2018-08-19T21:38:35.500Z,17.20
2018-08-19T21:41:05.612Z,17.20
2018-08-19T21:43:35.688Z,17.10
2018-08-19T21:46:05.800Z,17.00
2018-08-19T21:48:35.978Z,17.00
2018-08-19T21:51:06.196Z,17.00
2018-08-19T21:53:37.162Z,16.90
2018-08-19T21:56:07.644Z,16.90
2018-08-19T21:58:37.823Z,16.90
2018-08-19T22:01:13.123Z,16.90
2018-08-19T22:03:49.763Z,16.80
2018-08-19T22:06:19.889Z,16.80
2018-08-19T22:08:49.990Z,16.70
2018-08-19T22:11:21.636Z,16.60
2018-08-19T22:13:52.053Z,16.70
2018-08-19T22:16:22.140Z,16.60
2018-08-19T22:18:52.355Z,16.60
2018-08-19T22:21:23.804Z,16.60
2018-08-19T22:23:57.124Z,16.60
2018-08-19T22:26:27.200Z,16.60
2018-08-19T22:29:12.667Z,16.60
2018-08-19T22:31:42.772Z,16.60
2018-08-19T22:34:12.868Z,16.50
2018-08-19T22:36:43.023Z,16.50
2018-08-19T22:39:16.215Z,16.50
2018-08-19T22:41:50.176Z,16.50
2018-08-19T22:44:20.406Z,16.40
2018-08-19T22:46:50.508Z,16.40
2018-08-19T22:49:20.597Z,16.30
2018-08-19T22:51:50.759Z,16.20
2018-08-19T22:54:20.868Z,16.20
2018-08-19T22:56:50.983Z,16.30
2018-08-19T22:59:21.048Z,16.30
2018-08-19T23:01:51.143Z,16.20
2018-08-19T23:04:21.228Z,16.10
2018-08-19T23:06:51.311Z,16.00
2018-08-19T23:09:21.389Z,16.00
2018-08-19T23:11:51.469Z,16.00
2018-08-19T23:14:38.617Z,16.00
2018-08-19T23:17:09.127Z,16.00
2018-08-19T23:19:39.240Z,16.00
2018-08-19T23:22:09.339Z,16.00
2018-08-19T23:24:39.428Z,16.00
2018-08-19T23:27:09.585Z,15.90
2018-08-19T23:29:39.673Z,16.00
2018-08-19T23:32:09.806Z,15.90
2018-08-19T23:34:39.892Z,15.90
2018-08-19T23:37:10.013Z,16.00
2018-08-19T23:39:40.084Z,15.90
2018-08-19T23:42:10.184Z,15.90
2018-08-19T23:44:40.280Z,15.90
2018-08-19T23:47:10.389Z,15.90
2018-08-19T23:49:40.476Z,15.80
2018-08-19T23:52:10.595Z,15.80
2018-08-19T23:54:40.704Z,15.70
2018-08-19T23:57:10.840Z,15.70
2018-08-19T23:59:40.996Z,15.70
